createdAt,value
2018-12-13T00:00:47.195Z,0.01
2018-12-13T00:03:16.506Z,-0.03
2018-12-13T00:05:45.605Z,-0.03
2018-12-13T00:08:14.813Z,-0.06
2018-12-13T00:10:44.143Z,-0.09
2018-12-13T00:13:13.200Z,-0.16
2018-12-13T00:15:42.301Z,-0.12
2018-12-13T00:18:11.391Z,-0.10
2018-12-13T00:20:40.663Z,-0.10
2018-12-13T00:23:09.947Z,-0.09
2018-12-13T00:25:39.084Z,-0.16
2018-12-13T00:28:08.170Z,-0.15
2018-12-13T00:30:37.256Z,-0.14
2018-12-13T00:33:06.570Z,-0.08
2018-12-13T00:35:35.654Z,-0.11
2018-12-13T00:38:04.839Z,-0.17
2018-12-13T00:40:33.926Z,-0.11
2018-12-13T00:43:03.115Z,-0.08
2018-12-13T00:45:32.226Z,-0.08
2018-12-13T00:48:01.339Z,-0.11
2018-12-13T00:50:30.534Z,-0.09
2018-12-13T00:52:59.642Z,-0.09
2018-12-13T00:55:28.836Z,-0.20
2018-12-13T00:57:57.978Z,-0.11
2018-12-13T01:00:27.122Z,-0.18
2018-12-13T01:02:56.332Z,-0.14
2018-12-13T01:05:25.498Z,-0.18
2018-12-13T01:07:54.630Z,-0.13
2018-12-13T01:10:24.082Z,-0.07
2018-12-13T01:12:53.178Z,-0.10
2018-12-13T01:15:22.361Z,-0.10
2018-12-13T01:17:51.718Z,-0.10
2018-12-13T01:20:20.817Z,-0.14
2018-12-13T01:22:49.937Z,-0.10
2018-12-13T01:25:19.055Z,-0.08
2018-12-13T01:27:48.202Z,-0.06
2018-12-13T01:30:17.410Z,-0.11
2018-12-13T01:32:46.541Z,-0.09
2018-12-13T01:35:15.701Z,-0.02
2018-12-13T01:37:44.810Z,-0.09
2018-12-13T01:40:14.002Z,-0.10
2018-12-13T01:42:43.090Z,-0.20
2018-12-13T01:45:12.394Z,-0.26
2018-12-13T01:47:41.578Z,-0.34
2018-12-13T01:50:10.658Z,-0.26
2018-12-13T01:52:39.794Z,-0.24
2018-12-13T01:55:08.872Z,-0.42
2018-12-13T01:57:38.282Z,-0.39
2018-12-13T02:00:07.582Z,-0.37
2018-12-13T02:02:36.776Z,-0.48
2018-12-13T02:05:06.284Z,-0.60
2018-12-13T02:07:35.481Z,-0.41
2018-12-13T02:10:05.350Z,-0.54
2018-12-13T02:12:34.434Z,-0.47
2018-12-13T02:15:04.234Z,-0.49
2018-12-13T02:17:33.294Z,-0.43
2018-12-13T02:20:02.811Z,-0.54
2018-12-13T02:22:32.141Z,-0.40
2018-12-13T02:25:01.241Z,-0.47
2018-12-13T02:27:30.430Z,-0.59
2018-12-13T02:29:59.568Z,-0.65
2018-12-13T02:32:28.672Z,-0.53
2018-12-13T02:34:57.918Z,-0.53
2018-12-13T02:37:27.087Z,-0.54
2018-12-13T02:39:56.375Z,-0.52
2018-12-13T02:42:25.468Z,-0.67
2018-12-13T02:44:54.589Z,-0.64
2018-12-13T02:47:23.872Z,-0.53
2018-12-13T02:49:53.066Z,-0.72
2018-12-13T02:52:22.203Z,-0.65
2018-12-13T02:54:51.336Z,-0.62
2018-12-13T02:57:20.541Z,-0.55
2018-12-13T02:59:49.664Z,-0.59
2018-12-13T03:02:18.830Z,-0.98
2018-12-13T03:04:47.938Z,-0.56
2018-12-13T03:07:17.166Z,-0.54
2018-12-13T03:09:46.263Z,-0.62
2018-12-13T03:12:15.447Z,-0.64
2018-12-13T03:14:44.750Z,-0.64
2018-12-13T03:17:13.833Z,-0.63
2018-12-13T03:19:43.019Z,-1.15
2018-12-13T03:22:12.119Z,-0.79
2018-12-13T03:24:41.209Z,-0.66
2018-12-13T03:27:10.294Z,-1.16
2018-12-13T03:29:39.429Z,-0.66
2018-12-13T03:32:08.732Z,-0.69
2018-12-13T03:34:38.011Z,-0.78
2018-12-13T03:37:07.245Z,-0.85
2018-12-13T03:39:36.417Z,-0.78
2018-12-13T03:42:05.706Z,-0.70
2018-12-13T03:44:34.826Z,-0.70
2018-12-13T03:47:05.408Z,-0.66
2018-12-13T03:49:34.526Z,-0.64
2018-12-13T03:52:03.832Z,-0.65
2018-12-13T03:54:32.909Z,-0.63
2018-12-13T03:57:02.014Z,-0.66
2018-12-13T03:59:31.132Z,-0.70
2018-12-13T04:02:00.221Z,-0.71
2018-12-13T04:04:29.417Z,-0.85
2018-12-13T04:07:00.672Z,-0.81
2018-12-13T04:09:29.751Z,-0.74
2018-12-13T04:11:58.951Z,-0.89
2018-12-13T04:14:28.303Z,-0.80
2018-12-13T04:16:57.389Z,-0.85
2018-12-13T04:19:26.569Z,-0.89
2018-12-13T04:21:55.695Z,-0.78
2018-12-13T04:24:24.759Z,-0.71
2018-12-13T04:26:53.915Z,-0.80
2018-12-13T04:29:23.227Z,-0.89
2018-12-13T04:31:52.445Z,-0.91
2018-12-13T04:34:21.618Z,-0.78
2018-12-13T04:36:50.839Z,-0.83
2018-12-13T04:39:20.020Z,-0.95
2018-12-13T04:41:49.152Z,-0.75
2018-12-13T04:44:18.347Z,-0.80
2018-12-13T04:46:47.524Z,-0.91
2018-12-13T04:49:16.686Z,-0.80
2018-12-13T04:51:45.811Z,-0.83
2018-12-13T04:54:14.902Z,-0.75
2018-12-13T04:56:43.994Z,-0.72
2018-12-13T04:59:13.253Z,-0.96
2018-12-13T05:01:42.336Z,-0.92
2018-12-13T05:04:11.561Z,-0.85
2018-12-13T05:06:40.694Z,-0.75
2018-12-13T05:09:09.954Z,-0.74
2018-12-13T05:11:39.054Z,-0.73
2018-12-13T05:14:08.347Z,-0.72
2018-12-13T05:16:37.537Z,-0.78
2018-12-13T05:19:06.655Z,-0.75
2018-12-13T05:21:35.761Z,-0.83
2018-12-13T05:24:04.974Z,-0.93
2018-12-13T05:26:34.259Z,-0.94
2018-12-13T05:29:03.579Z,-0.85
2018-12-13T05:31:32.961Z,-0.82
2018-12-13T05:34:02.187Z,-0.87
2018-12-13T05:36:31.469Z,-0.89
2018-12-13T05:39:00.645Z,-0.83
2018-12-13T05:41:29.789Z,-0.84
2018-12-13T05:43:58.997Z,-0.83
2018-12-13T05:46:28.099Z,-0.89
2018-12-13T05:48:57.201Z,-0.82
2018-12-13T05:51:26.368Z,-0.86
2018-12-13T05:53:55.458Z,-0.83
2018-12-13T05:56:24.567Z,-0.82
2018-12-13T05:58:53.747Z,-0.89
2018-12-13T06:01:22.911Z,-0.91
2018-12-13T06:03:52.011Z,-1.10
2018-12-13T06:06:21.136Z,-0.98
2018-12-13T06:08:50.307Z,-0.98
2018-12-13T06:11:19.401Z,-1.14
2018-12-13T06:13:48.655Z,-0.95
2018-12-13T06:16:17.856Z,-0.97
2018-12-13T06:18:48.143Z,-1.00
2018-12-13T06:21:17.603Z,-0.88
2018-12-13T06:23:46.735Z,-1.02
2018-12-13T06:26:15.918Z,-1.40
2018-12-13T06:28:45.032Z,-1.00
2018-12-13T06:31:14.242Z,-1.04
2018-12-13T06:33:43.407Z,-0.89
2018-12-13T06:36:12.537Z,-0.91
2018-12-13T06:38:41.628Z,-0.91
2018-12-13T06:41:10.827Z,-0.87
2018-12-13T06:43:40.159Z,-0.83
2018-12-13T06:46:09.271Z,-0.83
2018-12-13T06:48:38.377Z,-0.88
2018-12-13T06:51:07.651Z,-0.82
2018-12-13T06:53:36.807Z,-0.91
2018-12-13T06:56:06.030Z,-0.90
2018-12-13T06:58:35.266Z,-0.74
2018-12-13T07:01:04.606Z,-0.77
2018-12-13T07:03:33.821Z,-0.79
2018-12-13T07:06:03.042Z,-0.74
2018-12-13T07:08:32.234Z,-0.81
2018-12-13T07:11:01.658Z,-0.78
2018-12-13T07:13:31.001Z,-0.93
2018-12-13T07:16:00.141Z,-0.71
2018-12-13T07:18:29.282Z,-0.79
2018-12-13T07:20:58.510Z,-0.75
2018-12-13T07:23:27.638Z,-0.82
2018-12-13T07:25:56.750Z,-0.80
2018-12-13T07:28:25.931Z,-0.82
2018-12-13T07:30:55.172Z,-0.70
2018-12-13T07:33:24.398Z,-0.65
2018-12-13T07:35:53.582Z,-0.56
2018-12-13T07:38:22.770Z,-0.63
2018-12-13T07:40:51.966Z,-0.73
2018-12-13T07:43:21.106Z,-0.64
2018-12-13T07:45:50.254Z,-0.51
2018-12-13T07:48:19.401Z,-0.56
2018-12-13T07:50:48.514Z,-0.54
2018-12-13T07:53:17.595Z,-0.65
2018-12-13T07:55:46.754Z,-0.66
2018-12-13T07:58:15.991Z,-0.63
2018-12-13T08:00:45.407Z,-0.54
2018-12-13T08:03:14.554Z,-0.53
2018-12-13T08:05:43.779Z,-0.65
2018-12-13T08:08:12.960Z,-0.67
2018-12-13T08:10:42.120Z,-0.65
2018-12-13T08:13:11.359Z,-0.56
2018-12-13T08:15:40.620Z,-0.54
2018-12-13T08:18:09.910Z,-0.48
2018-12-13T08:20:39.479Z,-0.55
2018-12-13T08:23:08.705Z,-0.63
2018-12-13T08:25:37.827Z,-0.58
2018-12-13T08:28:07.169Z,-0.50
2018-12-13T08:30:36.327Z,-0.50
2018-12-13T08:33:05.439Z,-0.61
2018-12-13T08:35:34.687Z,-0.48
2018-12-13T08:38:03.793Z,-0.41
2018-12-13T08:40:32.884Z,-0.31
2018-12-13T08:43:02.020Z,-0.30
2018-12-13T08:45:31.203Z,-0.46
2018-12-13T08:48:00.310Z,-0.41
2018-12-13T08:50:29.541Z,-0.40
2018-12-13T08:52:58.727Z,-0.38
2018-12-13T08:55:27.906Z,-0.30
2018-12-13T08:57:57.031Z,-0.21
2018-12-13T09:00:26.226Z,-0.26
2018-12-13T09:02:55.383Z,-0.33
2018-12-13T09:05:24.599Z,-0.40
2018-12-13T09:07:53.708Z,-0.35
2018-12-13T09:10:22.822Z,-0.17
2018-12-13T09:12:51.949Z,-0.14
2018-12-13T09:15:21.047Z,-0.04
2018-12-13T09:17:50.182Z,-0.12
2018-12-13T09:20:19.342Z,-0.17
2018-12-13T09:22:48.435Z,-0.03
2018-12-13T09:25:17.540Z,-0.19
2018-12-13T09:27:46.742Z,-0.03
2018-12-13T09:30:15.872Z,-0.16
2018-12-13T09:32:45.070Z,-0.05
2018-12-13T09:35:14.250Z,0.09
2018-12-13T09:37:47.512Z,-0.11
2018-12-13T09:40:14.631Z,-0.05
2018-12-13T09:42:43.844Z,-0.02
2018-12-13T09:45:13.034Z,0.04
2018-12-13T09:47:42.154Z,0.00
2018-12-13T09:50:11.574Z,0.03
2018-12-13T09:52:40.683Z,-0.08
2018-12-13T09:55:09.793Z,0.03
2018-12-13T09:57:38.918Z,0.11
2018-12-13T10:00:09.814Z,0.07
2018-12-13T10:02:38.933Z,0.01
2018-12-13T10:05:08.257Z,0.05
2018-12-13T10:07:37.342Z,0.04
2018-12-13T10:10:06.665Z,0.06
2018-12-13T10:12:35.969Z,0.20
2018-12-13T10:15:05.945Z,-0.06
2018-12-13T10:17:35.155Z,0.00
2018-12-13T10:20:04.620Z,0.03
2018-12-13T10:22:33.788Z,-0.10
2018-12-13T10:25:03.170Z,0.02
2018-12-13T10:27:32.559Z,-0.06
2018-12-13T10:30:01.762Z,0.15
2018-12-13T10:32:30.971Z,0.28
2018-12-13T10:35:00.231Z,0.23
2018-12-13T10:37:29.979Z,0.25
2018-12-13T10:39:59.279Z,0.36
2018-12-13T10:42:28.404Z,0.31
2018-12-13T10:44:57.615Z,0.23
2018-12-13T10:47:26.711Z,0.32
2018-12-13T10:49:55.870Z,0.35
2018-12-13T10:52:24.982Z,0.36
2018-12-13T10:54:54.190Z,0.37
2018-12-13T10:57:23.326Z,0.40
2018-12-13T10:59:52.401Z,0.54
2018-12-13T11:02:26.923Z,0.52
2018-12-13T11:04:55.995Z,0.36
2018-12-13T11:07:25.074Z,0.31
2018-12-13T11:09:54.516Z,0.31
2018-12-13T11:12:23.603Z,0.18
2018-12-13T11:14:52.734Z,0.24
2018-12-13T11:17:21.846Z,0.32
2018-12-13T11:19:51.221Z,0.29
2018-12-13T11:22:20.285Z,0.11
2018-12-13T11:24:49.402Z,0.30
2018-12-13T11:28:27.384Z,0.27
2018-12-13T11:30:56.705Z,0.27
2018-12-13T11:33:25.799Z,0.20
2018-12-13T11:35:54.910Z,0.22
2018-12-13T11:38:24.128Z,0.03
2018-12-13T11:40:53.218Z,0.20
2018-12-13T11:43:22.315Z,0.17
2018-12-13T11:45:51.426Z,0.18
2018-12-13T11:48:20.533Z,0.15
2018-12-13T11:50:49.650Z,0.31
2018-12-13T11:53:18.767Z,0.26
2018-12-13T11:55:47.948Z,0.24
2018-12-13T11:58:17.687Z,-0.23
2018-12-13T12:00:46.825Z,0.23
2018-12-13T12:03:15.910Z,0.20
2018-12-13T12:05:45.007Z,0.17
2018-12-13T12:08:14.129Z,0.24
2018-12-13T12:10:43.325Z,0.49
2018-12-13T12:13:12.497Z,0.34
2018-12-13T12:15:41.771Z,0.42
2018-12-13T12:18:11.088Z,0.26
2018-12-13T12:20:40.277Z,0.29
2018-12-13T12:23:09.537Z,0.22
2018-12-13T12:25:38.709Z,0.16
2018-12-13T12:28:07.891Z,0.16
2018-12-13T12:30:37.029Z,0.07
2018-12-13T12:33:06.252Z,0.17
2018-12-13T12:35:35.325Z,-0.01
2018-12-13T12:38:04.671Z,0.03
2018-12-13T12:40:33.785Z,0.00
2018-12-13T12:43:02.907Z,-0.05
2018-12-13T12:45:32.032Z,-0.18
2018-12-13T12:48:01.465Z,-0.07
2018-12-13T12:50:30.543Z,-0.11
2018-12-13T12:52:59.667Z,-0.05
2018-12-13T12:55:28.762Z,-0.10
2018-12-13T12:57:57.891Z,-0.10
2018-12-13T13:00:27.079Z,-0.10
2018-12-13T13:02:56.411Z,-0.27
2018-12-13T13:05:25.503Z,-0.28
2018-12-13T13:07:54.775Z,-0.16
2018-12-13T13:10:23.921Z,-0.17
2018-12-13T13:12:53.003Z,-0.14
2018-12-13T13:15:22.123Z,-0.26
2018-12-13T13:17:51.283Z,-0.27
2018-12-13T13:20:20.615Z,-0.14
2018-12-13T13:22:49.746Z,-0.16
2018-12-13T13:25:18.951Z,-0.40
2018-12-13T13:27:48.078Z,-0.44
2018-12-13T13:30:17.269Z,-0.44
2018-12-13T13:32:46.478Z,-0.36
2018-12-13T13:35:15.677Z,-0.50
2018-12-13T13:37:44.940Z,-0.43
2018-12-13T13:40:14.052Z,-0.44
2018-12-13T13:42:43.178Z,-0.45
2018-12-13T13:45:12.480Z,-0.57
2018-12-13T13:47:41.555Z,-0.64
2018-12-13T13:50:11.276Z,-0.54
2018-12-13T13:52:40.494Z,-0.53
2018-12-13T13:55:09.664Z,-0.57
2018-12-13T13:57:38.762Z,-0.62
2018-12-13T14:00:09.914Z,-0.50
2018-12-13T14:02:39.055Z,-0.50
2018-12-13T14:05:08.424Z,-0.44
2018-12-13T14:07:37.565Z,-0.46
2018-12-13T14:10:07.488Z,-0.55
2018-12-13T14:12:36.579Z,-0.62
2018-12-13T14:15:07.170Z,-0.58
2018-12-13T14:17:36.254Z,-0.58
2018-12-13T14:20:05.595Z,-0.52
2018-12-13T14:22:34.729Z,-0.59
2018-12-13T14:25:04.151Z,-0.69
2018-12-13T14:27:33.263Z,-0.73
2018-12-13T14:30:02.403Z,-0.88
2018-12-13T14:32:31.511Z,-0.79
2018-12-13T14:35:00.689Z,-0.92
2018-12-13T14:37:29.785Z,-1.01
2018-12-13T14:39:58.874Z,-0.73
2018-12-13T14:42:27.984Z,-0.73
2018-12-13T14:44:57.127Z,-0.87
2018-12-13T14:47:26.294Z,-0.74
2018-12-13T14:49:55.426Z,-0.68
2018-12-13T14:52:24.571Z,-0.73
2018-12-13T14:54:53.766Z,-0.88
2018-12-13T14:57:22.955Z,-0.84
2018-12-13T14:59:52.088Z,-0.95
2018-12-13T15:02:21.178Z,-0.83
2018-12-13T15:04:50.474Z,-0.87
2018-12-13T15:07:19.698Z,-0.81
2018-12-13T15:09:51.058Z,-0.83
2018-12-13T15:12:19.991Z,-0.93
2018-12-13T15:14:49.112Z,-0.82
2018-12-13T15:17:18.199Z,-0.86
2018-12-13T15:19:47.536Z,-0.93
2018-12-13T15:22:16.628Z,-0.83
2018-12-13T15:24:45.731Z,-0.80
2018-12-13T15:27:14.901Z,-0.78
2018-12-13T15:29:44.005Z,-1.02
2018-12-13T15:32:13.177Z,-0.90
2018-12-13T15:34:42.335Z,-0.91
2018-12-13T15:37:11.427Z,-0.94
2018-12-13T15:39:40.636Z,-0.87
2018-12-13T15:42:09.907Z,-0.92
2018-12-13T15:44:39.182Z,-0.94
2018-12-13T15:47:08.240Z,-0.96
2018-12-13T15:49:37.665Z,-0.87
2018-12-13T15:52:06.775Z,-0.88
2018-12-13T15:54:35.908Z,-0.98
2018-12-13T15:57:05.179Z,-0.99
2018-12-13T15:59:34.282Z,-1.05
2018-12-13T16:04:51.354Z,-1.02
2018-12-13T16:07:20.504Z,-0.90
2018-12-13T16:09:49.693Z,-0.99
2018-12-13T16:12:18.948Z,-0.96
2018-12-13T16:14:48.085Z,-1.23
2018-12-13T16:17:17.267Z,-1.08
2018-12-13T16:19:46.759Z,-1.06
2018-12-13T16:22:16.086Z,-0.94
2018-12-13T16:24:45.305Z,-1.05
2018-12-13T16:27:14.695Z,-1.18
2018-12-13T16:29:43.864Z,-1.09
2018-12-13T16:32:12.995Z,-1.07
2018-12-13T16:34:42.126Z,-0.92
2018-12-13T16:37:11.237Z,-0.71
2018-12-13T16:39:40.383Z,-0.67
2018-12-13T16:42:09.586Z,-1.04
2018-12-13T16:44:38.815Z,-1.20
2018-12-13T16:47:08.143Z,-1.04
2018-12-13T16:49:37.318Z,-0.99
2018-12-13T16:52:06.985Z,-1.04
2018-12-13T16:54:36.055Z,-1.09
2018-12-13T16:57:05.191Z,-1.18
2018-12-13T16:59:34.301Z,-0.95
2018-12-13T17:02:03.395Z,-0.94
2018-12-13T17:04:32.611Z,-0.99
2018-12-13T17:07:01.728Z,-1.01
2018-12-13T17:09:30.831Z,-1.05
2018-12-13T17:12:00.039Z,-1.06
2018-12-13T17:14:29.107Z,-1.16
2018-12-13T17:16:58.283Z,-1.23
2018-12-13T17:19:27.640Z,-1.24
2018-12-13T17:21:56.725Z,-1.20
2018-12-13T17:24:25.827Z,-1.15
2018-12-13T17:26:54.970Z,-1.25
2018-12-13T17:29:24.426Z,-1.24
2018-12-13T17:31:53.566Z,-1.22
2018-12-13T17:34:22.682Z,-1.24
2018-12-13T17:36:51.836Z,-1.07
2018-12-13T17:39:20.958Z,-1.12
2018-12-13T17:41:50.090Z,-1.08
2018-12-13T17:44:19.162Z,-1.09
2018-12-13T17:46:48.261Z,-1.06
2018-12-13T17:49:17.388Z,-1.14
2018-12-13T17:51:46.499Z,-1.19
2018-12-13T17:54:15.732Z,-1.17
2018-12-13T17:56:51.495Z,-1.13
2018-12-13T17:59:20.582Z,-1.07
2018-12-13T18:01:50.445Z,-1.23
2018-12-13T18:04:19.846Z,-1.04
2018-12-13T18:06:49.395Z,-0.90
2018-12-13T18:09:18.549Z,-1.08
2018-12-13T18:11:47.647Z,-1.24
2018-12-13T18:14:16.843Z,-1.19
2018-12-13T18:16:46.058Z,-1.28
2018-12-13T18:19:15.182Z,-1.30
2018-12-13T18:21:44.313Z,-1.42
2018-12-13T18:24:13.406Z,-1.32
2018-12-13T18:26:42.742Z,-1.33
2018-12-13T18:29:11.914Z,-1.32
2018-12-13T18:31:41.140Z,-1.40
2018-12-13T18:34:10.279Z,-1.54
2018-12-13T18:36:39.365Z,-1.46
2018-12-13T18:39:10.175Z,-1.27
2018-12-13T18:41:39.387Z,-1.42
2018-12-13T18:44:08.481Z,-1.31
2018-12-13T18:46:37.583Z,-1.29
2018-12-13T18:49:06.861Z,-1.29
2018-12-13T18:51:36.058Z,-1.45
2018-12-13T18:54:05.389Z,-1.40
2018-12-13T18:56:34.531Z,-1.36
2018-12-13T18:59:03.783Z,-1.52
2018-12-13T19:01:32.859Z,-1.41
2018-12-13T19:04:02.007Z,-1.34
2018-12-13T19:06:31.259Z,-1.28
2018-12-13T19:09:00.359Z,-1.24
2018-12-13T19:11:29.595Z,-1.38
2018-12-13T19:13:58.744Z,-1.42
2018-12-13T19:16:28.293Z,-1.33
2018-12-13T19:18:57.383Z,-1.39
2018-12-13T19:21:26.500Z,-1.29
2018-12-13T19:23:57.062Z,-1.28
2018-12-13T19:26:26.495Z,-1.45
2018-12-13T19:28:55.791Z,-1.49
2018-12-13T19:31:24.879Z,-1.54
2018-12-13T19:33:54.133Z,-1.70
2018-12-13T19:36:23.228Z,-1.61
2018-12-13T19:38:52.324Z,-1.51
2018-12-13T19:41:21.442Z,-1.37
2018-12-13T19:43:50.550Z,-1.52
2018-12-13T19:46:19.670Z,-1.54
2018-12-13T19:48:48.792Z,-1.58
2018-12-13T19:51:17.980Z,-1.67
2018-12-13T19:53:47.083Z,-1.75
2018-12-13T19:56:16.221Z,-1.52
2018-12-13T19:58:45.310Z,-1.52
2018-12-13T20:01:14.431Z,-1.61
2018-12-13T20:03:43.663Z,-1.55
2018-12-13T20:06:13.450Z,-1.45
2018-12-13T20:08:43.264Z,-1.45
2018-12-13T20:11:12.428Z,-1.18
2018-12-13T20:13:41.506Z,-1.38
2018-12-13T20:18:38.603Z,-1.42
2018-12-13T20:21:14.578Z,-1.34
2018-12-13T20:23:43.758Z,-1.29
2018-12-13T20:26:12.864Z,-1.42
2018-12-13T20:28:48.799Z,-1.52
2018-12-13T20:31:17.893Z,-1.53
2018-12-13T20:33:47.527Z,-1.48
2018-12-13T20:36:16.669Z,-1.47
2018-12-13T20:38:45.889Z,-1.61
2018-12-13T20:41:14.978Z,-1.54
2018-12-13T20:43:44.160Z,-1.69
2018-12-13T20:46:13.320Z,-1.70
2018-12-13T20:48:42.566Z,-1.52
2018-12-13T20:51:11.718Z,-1.53
2018-12-13T20:53:40.867Z,-1.49
2018-12-13T20:56:10.005Z,-1.34
2018-12-13T20:58:39.452Z,-1.48
2018-12-13T21:01:08.539Z,-1.59
2018-12-13T21:03:37.857Z,-1.50
2018-12-13T21:06:07.040Z,-1.59
2018-12-13T21:08:36.143Z,-1.55
2018-12-13T21:11:07.602Z,-1.52
2018-12-13T21:13:36.569Z,-1.34
2018-12-13T21:16:05.802Z,-1.44
2018-12-13T21:18:34.929Z,-1.54
2018-12-13T21:21:04.157Z,-1.55
2018-12-13T21:23:33.473Z,-1.59
2018-12-13T21:26:02.687Z,-1.61
2018-12-13T21:28:31.853Z,-1.49
2018-12-13T21:31:01.028Z,-1.50
2018-12-13T21:33:30.239Z,-1.49
2018-12-13T21:35:59.364Z,-1.61
2018-12-13T21:38:28.468Z,-1.56
2018-12-13T21:40:57.683Z,-1.56
2018-12-13T21:43:27.438Z,-1.58
2018-12-13T21:45:56.568Z,-1.55
2018-12-13T21:48:25.686Z,-1.69
2018-12-13T21:50:54.816Z,-1.77
2018-12-13T21:53:24.222Z,-1.68
2018-12-13T21:55:53.364Z,-1.68
2018-12-13T21:58:22.514Z,-1.64
2018-12-13T22:00:52.224Z,-1.69
2018-12-13T22:03:21.468Z,-1.61
2018-12-13T22:05:50.839Z,-1.59
2018-12-13T22:08:20.055Z,-1.74
2018-12-13T22:10:49.175Z,-1.74
2018-12-13T22:13:19.062Z,-1.82
2018-12-13T22:15:48.361Z,-1.63
2018-12-13T22:18:17.449Z,-1.45
2018-12-13T22:20:46.587Z,-1.46
2018-12-13T22:23:15.757Z,-1.34
2018-12-13T22:25:44.885Z,-1.34
2018-12-13T22:28:14.059Z,-1.43
2018-12-13T22:30:43.385Z,-1.34
2018-12-13T22:33:12.495Z,-1.45
2018-12-13T22:35:41.646Z,-1.60
2018-12-13T22:38:10.773Z,-1.43
2018-12-13T22:40:39.880Z,-1.50
2018-12-13T22:43:09.071Z,-1.69
2018-12-13T22:45:38.357Z,-1.68
2018-12-13T22:48:07.478Z,-1.71
2018-12-13T22:50:36.738Z,-1.48
2018-12-13T22:53:06.170Z,-1.48
2018-12-13T22:55:35.339Z,-1.51
2018-12-13T22:58:04.725Z,-1.67
2018-12-13T23:00:34.098Z,-1.67
2018-12-13T23:03:03.599Z,-1.63
2018-12-13T23:05:33.466Z,-1.59
2018-12-13T23:08:02.743Z,-1.69
2018-12-13T23:10:32.259Z,-1.64
2018-12-13T23:13:01.518Z,-1.67
2018-12-13T23:15:31.074Z,-1.70
2018-12-13T23:18:00.274Z,-1.68
2018-12-13T23:20:31.705Z,-1.67
2018-12-13T23:23:00.926Z,-1.84
2018-12-13T23:25:30.165Z,-1.70
2018-12-13T23:27:59.476Z,-1.70
2018-12-13T23:30:28.707Z,-1.70
2018-12-13T23:32:57.915Z,-1.70
2018-12-13T23:35:27.046Z,-1.64
2018-12-13T23:37:56.373Z,-1.64
2018-12-13T23:40:25.492Z,-1.67
2018-12-13T23:42:54.839Z,-1.61
2018-12-13T23:45:24.602Z,-1.76
2018-12-13T23:47:53.716Z,-1.67
2018-12-13T23:50:23.046Z,-1.74
2018-12-13T23:52:52.255Z,-1.74
2018-12-13T23:55:21.396Z,-1.72
2018-12-13T23:57:50.625Z,-1.77
